Time;durP1;ratioP1;P1;durP2;ratioP2;P2;SDS_P1;SDS_P2;PMS_P1;PMS_P2;Temp;Humidity;BMP_temperature;BMP_pressure;BME280_temperature;BME280_humidity;BME280_pressure;Samples;Min_cycle;Max_cycle;Signal;HPM_P1;HPM_P2
2022/04/28 00:02:18;;;;;;;15.38;5.78;;;;;;;;;;6278247;22;20431;-62
2022/04/28 00:04:44;;;;;;;10.57;5.57;;;;;;;;;;6278343;22;20146;-62
2022/04/28 00:07:10;;;;;;;9.25;5.65;;;;;;;;;;6278359;22;20143;-61
2022/04/28 00:09:36;;;;;;;11.75;6.10;;;;;;;;;;6278623;22;20144;-61
2022/04/28 00:12:03;;;;;;;13.80;5.65;;;;;;;;;;6278063;22;20428;-60
2022/04/28 00:14:30;;;;;;;14.50;6.00;;;;;;;;;;6278670;22;20140;-61
2022/04/28 00:16:56;;;;;;;12.82;5.45;;;;;;;;;;6278425;22;20148;-61
2022/04/28 00:19:21;;;;;;;10.02;5.82;;;;;;;;;;6278289;22;20147;-62
2022/04/28 00:21:47;;;;;;;11.07;5.22;;;;;;;;;;6278007;22;20140;-62
2022/04/28 00:24:13;;;;;;;13.68;6.03;;;;;;;;;;6278667;22;20234;-62
2022/04/28 00:26:39;;;;;;;11.60;5.65;;;;;;;;;;6278543;22;20164;-62
2022/04/28 00:29:05;;;;;;;14.18;5.85;;;;;;;;;;6278015;22;20197;-61
2022/04/28 00:31:31;;;;;;;13.63;6.20;;;;;;;;;;6278363;22;20128;-62
2022/04/28 00:33:57;;;;;;;12.73;5.65;;;;;;;;;;6278006;22;20221;-61
2022/04/28 00:36:23;;;;;;;9.20;6.70;;;;;;;;;;6278596;22;20216;-62
2022/04/28 00:38:49;;;;;;;9.07;5.63;;;;;;;;;;6278010;22;20543;-61
2022/04/28 00:41:15;;;;;;;15.05;5.80;;;;;;;;;;6278009;22;20144;-61
2022/04/28 00:43:48;;;;;;;14.07;6.18;;;;;;;;;;6278056;22;20178;-61
2022/04/28 00:46:14;;;;;;;13.55;6.40;;;;;;;;;;6278392;22;20155;-61
2022/04/28 00:51:26;;;;;;;12.32;5.47;;;;;;;;;;6278180;22;20143;-61
2022/04/28 00:53:52;;;;;;;9.35;6.00;;;;;;;;;;6277797;22;20163;-61
2022/04/28 00:56:18;;;;;;;8.88;6.20;;;;;;;;;;6277994;22;20136;-61
2022/04/28 00:58:44;;;;;;;11.95;5.88;;;;;;;;;;6277767;22;20413;-62
2022/04/28 01:01:10;;;;;;;11.45;6.22;;;;;;;;;;6277577;22;20136;-61
2022/04/28 01:03:36;;;;;;;13.88;5.90;;;;;;;;;;6277585;22;20143;-61
2022/04/28 01:06:02;;;;;;;12.07;5.72;;;;;;;;;;6278212;22;20209;-61
2022/04/28 01:08:29;;;;;;;15.52;6.32;;;;;;;;;;6277686;22;20143;-61
2022/04/28 01:10:56;;;;;;;15.05;6.25;;;;;;;;;;6278062;22;20225;-61
2022/04/28 01:13:22;;;;;;;11.30;6.00;;;;;;;;;;6277998;22;20167;-61
2022/04/28 01:15:48;;;;;;;11.73;6.18;;;;;;;;;;6277979;22;20222;-61
2022/04/28 01:18:15;;;;;;;10.77;6.80;;;;;;;;;;6277556;22;20143;-62
2022/04/28 01:20:41;;;;;;;12.20;6.93;;;;;;;;;;6277685;22;20428;-62
2022/04/28 01:23:07;;;;;;;15.82;7.22;;;;;;;;;;6278065;22;20147;-61
2022/04/28 01:25:33;;;;;;;13.88;6.70;;;;;;;;;;6277923;22;20151;-62
2022/04/28 01:27:59;;;;;;;15.95;6.88;;;;;;;;;;6277599;22;20441;-61
2022/04/28 01:30:25;;;;;;;16.35;6.53;;;;;;;;;;6277439;22;20581;-61
2022/04/28 01:32:52;;;;;;;14.35;6.70;;;;;;;;;;6278016;22;20183;-61
2022/04/28 01:35:18;;;;;;;13.27;7.55;;;;;;;;;;6279477;22;20547;-61
2022/04/28 01:37:44;;;;;;;12.40;7.53;;;;;;;;;;6278434;22;20214;-61
2022/04/28 01:40:13;;;;;;;14.02;7.10;;;;;;;;;;6277622;22;20147;-61
2022/04/28 01:42:42;;;;;;;18.25;7.38;;;;;;;;;;6277678;22;20151;-61
2022/04/28 01:45:09;;;;;;;13.85;6.93;;;;;;;;;;6277845;22;20173;-61
2022/04/28 01:47:35;;;;;;;15.05;7.65;;;;;;;;;;6277631;22;20614;-61
2022/04/28 01:50:01;;;;;;;10.52;6.93;;;;;;;;;;6277697;22;20150;-61
2022/04/28 01:55:12;;;;;;;12.13;6.40;;;;;;;;;;6277692;22;20142;-61
2022/04/28 01:57:39;;;;;;;12.65;7.47;;;;;;;;;;6277619;22;20144;-60
2022/04/28 02:00:06;;;;;;;14.95;7.13;;;;;;;;;;6277966;22;20218;-61
2022/04/28 02:02:32;;;;;;;15.68;7.57;;;;;;;;;;6277868;22;20489;-61
2022/04/28 02:05:01;;;;;;;13.27;7.07;;;;;;;;;;6277712;22;20143;-60
2022/04/28 02:07:27;;;;;;;14.57;7.50;;;;;;;;;;6277727;22;20200;-61
2022/04/28 02:09:54;;;;;;;15.45;7.45;;;;;;;;;;6277753;22;20158;-61
2022/04/28 02:12:20;;;;;;;13.48;7.28;;;;;;;;;;6277262;22;20170;-61
2022/04/28 02:14:46;;;;;;;15.50;7.90;;;;;;;;;;6277354;22;20140;-61
2022/04/28 02:17:12;;;;;;;12.38;7.15;;;;;;;;;;6278090;22;20175;-61
2022/04/28 02:19:38;;;;;;;13.77;7.68;;;;;;;;;;6277560;22;20139;-61
2022/04/28 02:22:04;;;;;;;16.70;7.90;;;;;;;;;;6277573;22;20142;-60
2022/04/28 02:24:30;;;;;;;15.25;8.05;;;;;;;;;;6277636;22;20144;-61
2022/04/28 02:26:56;;;;;;;14.07;7.65;;;;;;;;;;6277967;22;20592;-61
2022/04/28 02:29:22;;;;;;;16.85;8.05;;;;;;;;;;6277438;22;20455;-61
2022/04/28 02:31:48;;;;;;;12.88;7.80;;;;;;;;;;6277303;22;20483;-60
2022/04/28 02:34:14;;;;;;;12.32;7.18;;;;;;;;;;6277225;22;20168;-61
2022/04/28 02:36:40;;;;;;;14.40;8.13;;;;;;;;;;6277208;22;20136;-61
2022/04/28 02:39:06;;;;;;;18.08;8.55;;;;;;;;;;6277298;22;20136;-61
2022/04/28 02:41:32;;;;;;;20.30;8.40;;;;;;;;;;6277259;22;20142;-61
2022/04/28 02:43:57;;;;;;;20.13;9.02;;;;;;;;;;6277233;22;20140;-61
2022/04/28 02:46:23;;;;;;;21.90;10.18;;;;;;;;;;6277237;22;20225;-60
2022/04/28 02:48:49;;;;;;;21.40;10.43;;;;;;;;;;6277050;22;20479;-61
2022/04/28 02:51:18;;;;;;;18.42;9.73;;;;;;;;;;6277418;22;20209;-61
2022/04/28 02:53:44;;;;;;;25.85;11.27;;;;;;;;;;6277077;22;20192;-60
2022/04/28 02:56:10;;;;;;;21.42;11.65;;;;;;;;;;6277063;22;20147;-60
2022/04/28 02:58:37;;;;;;;20.35;11.15;;;;;;;;;;6276971;22;20147;-61
2022/04/28 03:01:03;;;;;;;18.80;10.65;;;;;;;;;;6277462;22;20151;-61
2022/04/28 03:03:28;;;;;;;18.85;10.95;;;;;;;;;;6276969;22;20277;-61
2022/04/28 03:11:24;;;;;;;19.52;10.48;;;;;;;;;;6277157;22;20175;-61
2022/04/28 03:13:50;;;;;;;21.52;10.90;;;;;;;;;;6276781;22;20164;-62
2022/04/28 03:16:16;;;;;;;19.88;10.25;;;;;;;;;;6277292;22;20155;-60
2022/04/28 03:18:44;;;;;;;17.83;9.77;;;;;;;;;;6278973;22;20140;-62
2022/04/28 03:21:10;;;;;;;20.30;10.63;;;;;;;;;;6277443;22;20140;-61
2022/04/28 03:23:37;;;;;;;22.45;10.13;;;;;;;;;;6278636;22;20157;-62
2022/04/28 03:26:04;;;;;;;21.33;10.00;;;;;;;;;;6279499;22;20140;-62
2022/04/28 03:28:35;;;;;;;18.35;10.65;;;;;;;;;;6278868;22;20175;-61
2022/04/28 03:31:04;;;;;;;19.80;9.35;;;;;;;;;;6279164;22;20274;-62
2022/04/28 03:33:30;;;;;;;18.85;9.55;;;;;;;;;;6279600;22;20163;-60
2022/04/28 03:35:56;;;;;;;19.95;9.35;;;;;;;;;;6278797;22;20167;-62
2022/04/28 03:38:22;;;;;;;20.50;11.05;;;;;;;;;;6278864;22;20633;-61
2022/04/28 03:40:48;;;;;;;20.60;9.63;;;;;;;;;;6278873;22;20136;-62
2022/04/28 03:43:14;;;;;;;18.27;9.48;;;;;;;;;;6278926;22;20220;-61
2022/04/28 03:45:41;;;;;;;17.73;9.35;;;;;;;;;;6278714;22;20143;-62
2022/04/28 03:48:09;;;;;;;23.55;9.38;;;;;;;;;;6278751;22;20454;-61
2022/04/28 03:50:35;;;;;;;16.33;9.15;;;;;;;;;;6278953;22;20198;-61
2022/04/28 03:53:01;;;;;;;18.92;9.23;;;;;;;;;;6278602;22;20169;-61
2022/04/28 03:55:27;;;;;;;16.10;9.02;;;;;;;;;;6278504;22;20216;-61
2022/04/28 03:57:54;;;;;;;21.77;9.52;;;;;;;;;;6278585;22;20189;-61
2022/04/28 04:00:20;;;;;;;18.45;9.20;;;;;;;;;;6278830;22;20140;-61
2022/04/28 04:02:46;;;;;;;16.63;8.98;;;;;;;;;;6279073;22;20148;-61
2022/04/28 04:05:13;;;;;;;15.75;9.27;;;;;;;;;;6279013;22;20147;-61
2022/04/28 04:07:39;;;;;;;17.13;9.23;;;;;;;;;;6278854;22;20612;-61
2022/04/28 04:10:06;;;;;;;21.85;9.65;;;;;;;;;;6278638;22;20140;-61
2022/04/28 04:12:32;;;;;;;17.45;9.07;;;;;;;;;;6279193;22;20450;-61
2022/04/28 04:14:58;;;;;;;20.15;10.07;;;;;;;;;;6278687;22;20163;-61
2022/04/28 04:17:25;;;;;;;17.63;9.38;;;;;;;;;;6279115;22;20447;-61
2022/04/28 04:19:50;;;;;;;20.42;9.27;;;;;;;;;;6278698;22;20555;-61
2022/04/28 04:22:16;;;;;;;17.60;9.55;;;;;;;;;;6278800;22;20158;-61
2022/04/28 04:24:43;;;;;;;23.13;10.75;;;;;;;;;;6279137;22;20158;-61
2022/04/28 04:27:15;;;;;;;20.98;11.13;;;;;;;;;;6278609;22;20151;-61
2022/04/28 04:29:41;;;;;;;17.52;10.27;;;;;;;;;;6278719;22;20163;-61
2022/04/28 04:32:20;;;;;;;21.00;10.52;;;;;;;;;;6278885;22;20154;-61
2022/04/28 04:34:47;;;;;;;21.98;10.52;;;;;;;;;;6278390;22;20458;-61
2022/04/28 04:37:13;;;;;;;22.30;11.65;;;;;;;;;;6278813;22;20140;-61
2022/04/28 04:39:40;;;;;;;17.50;10.90;;;;;;;;;;6278484;22;20140;-61
2022/04/28 04:42:06;;;;;;;22.63;11.55;;;;;;;;;;6278968;22;20154;-61
2022/04/28 04:44:32;;;;;;;18.38;11.02;;;;;;;;;;6278744;22;20143;-61
2022/04/28 04:46:58;;;;;;;21.70;10.68;;;;;;;;;;6278374;22;20689;-61
2022/04/28 04:49:24;;;;;;;19.65;11.50;;;;;;;;;;6278407;22;20238;-61
2022/04/28 04:51:50;;;;;;;23.73;12.05;;;;;;;;;;6278427;22;20162;-61
2022/04/28 04:54:16;;;;;;;23.27;11.70;;;;;;;;;;6278519;22;20225;-61
2022/04/28 04:56:42;;;;;;;22.02;11.18;;;;;;;;;;6278790;22;20144;-61
2022/04/28 04:59:08;;;;;;;17.85;10.95;;;;;;;;;;6280033;22;20135;-61
2022/04/28 05:01:34;;;;;;;24.73;11.63;;;;;;;;;;6278699;22;20136;-61
2022/04/28 05:04:00;;;;;;;18.52;11.25;;;;;;;;;;6278708;22;20574;-61
2022/04/28 05:06:26;;;;;;;19.05;11.63;;;;;;;;;;6278949;22;20237;-61
2022/04/28 05:08:51;;;;;;;24.15;12.02;;;;;;;;;;6279210;22;20167;-61
2022/04/28 05:11:17;;;;;;;21.27;11.75;;;;;;;;;;6278469;22;20146;-61
2022/04/28 05:13:44;;;;;;;20.02;11.25;;;;;;;;;;6279485;22;20217;-61
2022/04/28 05:16:10;;;;;;;19.55;12.02;;;;;;;;;;6280414;22;20567;-61
2022/04/28 05:18:36;;;;;;;20.58;11.40;;;;;;;;;;6278914;22;20136;-59
2022/04/28 05:21:02;;;;;;;20.90;11.93;;;;;;;;;;6279020;22;20635;-62
2022/04/28 05:23:28;;;;;;;21.25;11.80;;;;;;;;;;6279015;22;20182;-61
2022/04/28 05:25:53;;;;;;;22.20;12.45;;;;;;;;;;6279644;22;20159;-62
2022/04/28 05:28:19;;;;;;;21.90;11.43;;;;;;;;;;6279120;22;20193;-61
2022/04/28 05:30:46;;;;;;;19.83;12.30;;;;;;;;;;6278674;22;20465;-62
2022/04/28 05:33:12;;;;;;;26.70;14.70;;;;;;;;;;6278717;22;20631;-62
2022/04/28 05:35:39;;;;;;;23.50;13.27;;;;;;;;;;6278571;22;20168;-62
2022/04/28 05:38:05;;;;;;;29.45;15.55;;;;;;;;;;6278145;22;20226;-62
2022/04/28 05:40:31;;;;;;;26.05;15.55;;;;;;;;;;6278320;22;20151;-62
2022/04/28 05:45:41;;;;;;;26.85;16.77;;;;;;;;;;6279115;22;20156;-62
2022/04/28 05:48:08;;;;;;;29.80;16.63;;;;;;;;;;6279102;22;20139;-62
2022/04/28 05:50:34;;;;;;;32.22;17.38;;;;;;;;;;6277831;22;20139;-62
2022/04/28 05:53:00;;;;;;;33.97;17.95;;;;;;;;;;6278201;22;20188;-62
2022/04/28 05:55:26;;;;;;;32.03;17.67;;;;;;;;;;6278403;22;20135;-62
2022/04/28 05:57:52;;;;;;;31.40;18.02;;;;;;;;;;6278283;22;20136;-62
2022/04/28 06:00:18;;;;;;;30.65;18.90;;;;;;;;;;6278215;22;20150;-62
2022/04/28 06:02:44;;;;;;;33.70;20.17;;;;;;;;;;6278857;22;20144;-62
2022/04/28 06:05:10;;;;;;;35.35;18.90;;;;;;;;;;6251707;22;20155;-62
2022/04/28 06:07:36;;;;;;;33.05;18.98;;;;;;;;;;6278303;22;20143;-60
2022/04/28 06:10:03;;;;;;;36.13;20.33;;;;;;;;;;6278571;22;20171;-60
2022/04/28 06:12:29;;;;;;;36.97;20.08;;;;;;;;;;6278625;22;20171;-62
2022/04/28 06:14:55;;;;;;;36.15;19.52;;;;;;;;;;6278858;22;20507;-62
2022/04/28 06:17:21;;;;;;;32.08;18.42;;;;;;;;;;6278616;22;20139;-62
2022/04/28 06:19:48;;;;;;;36.33;19.77;;;;;;;;;;6278445;22;20163;-61
2022/04/28 06:22:14;;;;;;;35.28;19.10;;;;;;;;;;6279109;22;20179;-62
2022/04/28 06:24:39;;;;;;;32.42;17.63;;;;;;;;;;6281443;22;20568;-62
2022/04/28 06:27:05;;;;;;;31.08;17.67;;;;;;;;;;6280582;22;20606;-61
2022/04/28 06:29:31;;;;;;;29.45;16.75;;;;;;;;;;6278429;22;20234;-62
2022/04/28 06:31:57;;;;;;;31.73;17.13;;;;;;;;;;6278827;22;20185;-61
2022/04/28 06:34:23;;;;;;;31.02;16.92;;;;;;;;;;6278516;22;20168;-63
2022/04/28 06:36:49;;;;;;;32.58;17.63;;;;;;;;;;6278352;22;20446;-62
2022/04/28 06:39:15;;;;;;;30.65;16.85;;;;;;;;;;6278708;22;20139;-62
2022/04/28 06:41:41;;;;;;;30.40;17.17;;;;;;;;;;6278414;22;20191;-62
2022/04/28 06:44:07;;;;;;;33.42;18.58;;;;;;;;;;6278402;22;20151;-62
2022/04/28 06:46:33;;;;;;;33.30;17.50;;;;;;;;;;6278268;22;20147;-62
2022/04/28 06:48:59;;;;;;;27.17;16.30;;;;;;;;;;6251498;22;20190;-62
2022/04/28 06:51:25;;;;;;;30.65;16.63;;;;;;;;;;6278593;22;20139;-61
2022/04/28 06:53:51;;;;;;;26.77;16.40;;;;;;;;;;6279119;22;20171;-61
2022/04/28 06:56:17;;;;;;;30.98;16.95;;;;;;;;;;6278139;22;20552;-61
2022/04/28 06:58:43;;;;;;;29.33;16.88;;;;;;;;;;6279615;22;20500;-61
2022/04/28 07:01:09;;;;;;;29.05;16.50;;;;;;;;;;6279021;22;20171;-62
2022/04/28 07:03:35;;;;;;;27.98;16.05;;;;;;;;;;6272725;22;20143;-62
2022/04/28 07:06:01;;;;;;;29.35;15.30;;;;;;;;;;6257117;22;20162;-62
2022/04/28 07:08:27;;;;;;;26.98;15.93;;;;;;;;;;6278043;22;20218;-62
2022/04/28 07:10:55;;;;;;;23.65;14.38;;;;;;;;;;6279242;22;20154;-59
2022/04/28 07:13:21;;;;;;;22.75;14.38;;;;;;;;;;6252048;22;20278;-62
2022/04/28 07:15:47;;;;;;;26.13;15.25;;;;;;;;;;6278702;22;20151;-62
2022/04/28 07:18:14;;;;;;;26.20;15.60;;;;;;;;;;6279461;22;20158;-61
2022/04/28 07:20:41;;;;;;;28.10;16.00;;;;;;;;;;6252291;22;20143;-59
2022/04/28 07:23:07;;;;;;;26.13;15.88;;;;;;;;;;6252325;22;20158;-61
2022/04/28 07:25:33;;;;;;;27.10;16.10;;;;;;;;;;6252615;22;20147;-61
2022/04/28 07:27:59;;;;;;;23.42;15.25;;;;;;;;;;6252423;22;20155;-61
2022/04/28 07:30:26;;;;;;;26.77;15.88;;;;;;;;;;6278753;22;20170;-62
2022/04/28 07:32:55;;;;;;;24.63;15.35;;;;;;;;;;6251868;22;20638;-61
2022/04/28 07:35:23;;;;;;;22.98;14.73;;;;;;;;;;6280808;22;20140;-61
2022/04/28 07:37:49;;;;;;;24.35;15.23;;;;;;;;;;6280732;22;20170;-61
2022/04/28 07:40:15;;;;;;;25.65;15.52;;;;;;;;;;6278785;22;20508;-62
2022/04/28 07:42:41;;;;;;;24.73;13.57;;;;;;;;;;6278955;22;20191;-61
2022/04/28 07:45:07;;;;;;;25.92;15.32;;;;;;;;;;6279543;22;20148;-61
2022/04/28 07:47:33;;;;;;;24.85;15.02;;;;;;;;;;6280761;22;20171;-63
2022/04/28 07:49:59;;;;;;;25.20;15.82;;;;;;;;;;6280087;22;20151;-61
2022/04/28 07:52:28;;;;;;;24.05;14.45;;;;;;;;;;6278922;22;20572;-61
2022/04/28 07:54:53;;;;;;;27.45;15.65;;;;;;;;;;6278815;22;20194;-61
2022/04/28 07:57:22;;;;;;;27.35;15.43;;;;;;;;;;6278572;22;20736;-61
2022/04/28 07:59:49;;;;;;;25.85;14.75;;;;;;;;;;6278858;22;20196;-62
2022/04/28 08:02:15;;;;;;;24.35;15.20;;;;;;;;;;6278447;22;20619;-62
2022/04/28 08:04:41;;;;;;;29.83;16.42;;;;;;;;;;6278161;22;20164;-62
2022/04/28 08:07:06;;;;;;;28.50;16.15;;;;;;;;;;6278651;22;20136;-62
2022/04/28 08:09:32;;;;;;;27.85;16.42;;;;;;;;;;6278086;22;20143;-62
2022/04/28 08:11:58;;;;;;;24.67;15.00;;;;;;;;;;6278182;22;20400;-62
2022/04/28 08:14:25;;;;;;;24.45;15.30;;;;;;;;;;6278979;22;20167;-62
2022/04/28 08:16:53;;;;;;;23.45;14.90;;;;;;;;;;6278985;22;20185;-61
2022/04/28 08:19:20;;;;;;;26.23;14.82;;;;;;;;;;6278821;22;20159;-61
2022/04/28 08:21:46;;;;;;;21.92;13.88;;;;;;;;;;6279045;22;20136;-61
2022/04/28 08:24:12;;;;;;;23.17;14.02;;;;;;;;;;6279117;22;20570;-62
2022/04/28 08:26:38;;;;;;;23.30;14.30;;;;;;;;;;6279021;22;20547;-62
2022/04/28 08:29:04;;;;;;;22.33;14.85;;;;;;;;;;6277841;22;20176;-62
2022/04/28 08:31:30;;;;;;;23.05;14.45;;;;;;;;;;6278832;22;20135;-61
2022/04/28 08:33:56;;;;;;;23.08;15.27;;;;;;;;;;6278652;22;20409;-62
2022/04/28 08:36:22;;;;;;;22.55;15.35;;;;;;;;;;6278643;22;20147;-61
2022/04/28 08:38:48;;;;;;;26.88;14.50;;;;;;;;;;6278088;22;20416;-62
2022/04/28 08:41:22;;;;;;;24.25;15.20;;;;;;;;;;6278601;22;20493;-60
2022/04/28 08:43:49;;;;;;;25.60;16.23;;;;;;;;;;6289378;22;20138;-62
2022/04/28 08:49:00;;;;;;;25.95;16.63;;;;;;;;;;6278084;22;20202;-61
2022/04/28 08:51:26;;;;;;;24.13;15.93;;;;;;;;;;6278246;22;20159;-62
2022/04/28 08:53:52;;;;;;;25.25;16.13;;;;;;;;;;6277590;22;20186;-63
2022/04/28 08:56:19;;;;;;;25.23;15.32;;;;;;;;;;6277683;22;20151;-61
2022/04/28 08:58:47;;;;;;;25.48;16.17;;;;;;;;;;6278939;22;20571;-62
2022/04/28 09:01:13;;;;;;;27.25;15.57;;;;;;;;;;6278137;22;20136;-62
2022/04/28 09:03:39;;;;;;;28.45;16.60;;;;;;;;;;6277857;22;20143;-63
2022/04/28 09:06:15;;;;;;;25.80;16.08;;;;;;;;;;6278567;22;20449;-63
2022/04/28 09:08:41;;;;;;;26.20;16.15;;;;;;;;;;6278762;22;20139;-64
2022/04/28 09:11:16;;;;;;;24.02;15.10;;;;;;;;;;6278153;22;20144;-63
2022/04/28 09:16:27;;;;;;;22.83;14.93;;;;;;;;;;6278964;22;20162;-63
2022/04/28 09:18:54;;;;;;;25.67;15.38;;;;;;;;;;6278292;22;20144;-62
2022/04/28 09:21:20;;;;;;;22.17;14.63;;;;;;;;;;6277220;22;20608;-63
2022/04/28 09:23:50;;;;;;;25.02;14.43;;;;;;;;;;6277657;22;20264;-63
2022/04/28 09:26:16;;;;;;;23.60;14.70;;;;;;;;;;6278103;22;20162;-62
2022/04/28 09:28:42;;;;;;;22.50;14.10;;;;;;;;;;6278239;22;20566;-62
2022/04/28 09:31:11;;;;;;;21.65;13.85;;;;;;;;;;6277538;22;20197;-63
2022/04/28 09:33:38;;;;;;;22.13;14.15;;;;;;;;;;6277619;22;20221;-63
2022/04/28 09:36:05;;;;;;;21.33;13.68;;;;;;;;;;6277529;22;20163;-64
2022/04/28 09:38:31;;;;;;;20.23;13.50;;;;;;;;;;6277814;22;20144;-62
2022/04/28 09:43:41;;;;;;;21.85;13.88;;;;;;;;;;6277445;22;20216;-64
2022/04/28 09:46:08;;;;;;;18.38;13.32;;;;;;;;;;6277561;22;20147;-62
2022/04/28 09:48:36;;;;;;;21.45;13.30;;;;;;;;;;6277478;22;20158;-64
2022/04/28 09:51:09;;;;;;;19.85;12.88;;;;;;;;;;6278319;22;20485;-64
2022/04/28 09:53:36;;;;;;;20.77;13.32;;;;;;;;;;6277576;22;20156;-63
2022/04/28 09:56:03;;;;;;;19.98;13.25;;;;;;;;;;6278259;22;20545;-63
2022/04/28 09:58:29;;;;;;;20.67;13.48;;;;;;;;;;6277238;22;20160;-65
2022/04/28 10:01:00;;;;;;;18.88;12.70;;;;;;;;;;6277099;22;20136;-63
2022/04/28 10:03:28;;;;;;;20.05;13.30;;;;;;;;;;6277262;22;20165;-62
2022/04/28 10:05:54;;;;;;;22.80;13.57;;;;;;;;;;6277680;22;20446;-63
2022/04/28 10:08:21;;;;;;;21.25;13.77;;;;;;;;;;6277530;22;20147;-63
2022/04/28 10:10:49;;;;;;;19.67;13.20;;;;;;;;;;6278151;22;20577;-63
2022/04/28 10:13:15;;;;;;;20.30;12.70;;;;;;;;;;6277894;22;20174;-63
2022/04/28 10:15:42;;;;;;;19.10;12.02;;;;;;;;;;6278735;22;20144;-64
2022/04/28 10:18:09;;;;;;;18.33;12.13;;;;;;;;;;6278681;22;20139;-63
2022/04/28 10:20:37;;;;;;;16.58;11.30;;;;;;;;;;6280024;22;20140;-63
2022/04/28 10:23:05;;;;;;;22.75;12.73;;;;;;;;;;6282991;22;20226;-64
2022/04/28 10:34:12;;;;;;;16.55;10.20;;;;;;;;;;6293317;22;20232;-63
2022/04/28 10:36:57;;;;;;;16.80;10.77;;;;;;;;;;6289714;22;20139;-63
2022/04/28 10:39:33;;;;;;;19.33;10.32;;;;;;;;;;6286283;22;20135;-63
2022/04/28 10:41:59;;;;;;;16.48;10.60;;;;;;;;;;6281460;22;20225;-63
2022/04/28 10:44:29;;;;;;;15.82;11.27;;;;;;;;;;6278411;22;20551;-63
2022/04/28 10:46:59;;;;;;;16.02;10.38;;;;;;;;;;6279308;22;20131;-63
2022/04/28 10:49:25;;;;;;;13.40;8.73;;;;;;;;;;6278921;22;20496;-63
2022/04/28 10:51:57;;;;;;;14.25;8.55;;;;;;;;;;6278850;22;20570;-63
2022/04/28 10:54:23;;;;;;;14.75;8.20;;;;;;;;;;6279002;22;20168;-63
2022/04/28 10:56:56;;;;;;;12.15;8.63;;;;;;;;;;6279101;22;20262;-62
2022/04/28 10:59:37;;;;;;;14.63;9.00;;;;;;;;;;6278894;22;20124;-63
2022/04/28 11:02:15;;;;;;;11.30;7.88;;;;;;;;;;6279134;22;20131;-62
2022/04/28 11:04:45;;;;;;;11.95;7.72;;;;;;;;;;6278858;22;20124;-64
2022/04/28 11:07:19;;;;;;;11.52;8.07;;;;;;;;;;6279569;22;20209;-63
2022/04/28 11:09:50;;;;;;;15.38;8.95;;;;;;;;;;6279192;22;20140;-63
2022/04/28 11:12:20;;;;;;;11.75;8.88;;;;;;;;;;6278974;22;20215;-63
2022/04/28 11:14:51;;;;;;;16.38;8.10;;;;;;;;;;6279500;22;20217;-63
2022/04/28 11:17:19;;;;;;;11.50;7.72;;;;;;;;;;6280180;22;20150;-63
2022/04/28 11:19:45;;;;;;;9.25;7.43;;;;;;;;;;6279904;22;20150;-62
2022/04/28 11:22:11;;;;;;;13.38;8.65;;;;;;;;;;6279064;22;20147;-61
2022/04/28 11:24:44;;;;;;;13.82;9.02;;;;;;;;;;6278263;22;20135;-63
2022/04/28 11:27:21;;;;;;;10.63;7.60;;;;;;;;;;6279236;22;20143;-63
2022/04/28 11:29:49;;;;;;;11.10;7.20;;;;;;;;;;6278585;22;20155;-63
2022/04/28 11:32:17;;;;;;;12.70;7.13;;;;;;;;;;6278471;22;20167;-62
2022/04/28 11:34:44;;;;;;;13.35;7.28;;;;;;;;;;6278745;22;20469;-63
2022/04/28 11:37:16;;;;;;;10.20;7.10;;;;;;;;;;6278997;22;20143;-63
2022/04/28 11:39:45;;;;;;;13.15;7.35;;;;;;;;;;6278807;22;20140;-62
2022/04/28 11:42:16;;;;;;;10.52;7.30;;;;;;;;;;6278715;22;20132;-63
2022/04/28 11:44:51;;;;;;;11.13;7.15;;;;;;;;;;6278450;22;20128;-63
2022/04/28 11:47:17;;;;;;;11.32;6.72;;;;;;;;;;6278911;22;20197;-64
2022/04/28 11:49:43;;;;;;;10.60;7.05;;;;;;;;;;6278475;22;20144;-62
2022/04/28 11:52:23;;;;;;;12.85;7.43;;;;;;;;;;6278383;22;20150;-62
2022/04/28 11:54:52;;;;;;;10.10;6.72;;;;;;;;;;6278429;22;20142;-63
2022/04/28 11:57:19;;;;;;;10.50;6.93;;;;;;;;;;6278593;22;20485;-62
2022/04/28 11:59:47;;;;;;;11.40;7.35;;;;;;;;;;6278525;22;20554;-62
2022/04/28 12:02:32;;;;;;;11.20;7.43;;;;;;;;;;6278961;22;20219;-63
2022/04/28 12:04:58;;;;;;;11.20;7.30;;;;;;;;;;6278909;22;20144;-64
2022/04/28 12:07:31;;;;;;;13.98;7.78;;;;;;;;;;6278818;22;20150;-62
2022/04/28 12:15:27;;;;;;;9.82;7.03;;;;;;;;;;6278469;22;20265;-63
2022/04/28 12:20:52;;;;;;;11.70;7.82;;;;;;;;;;6278071;22;20135;-64
2022/04/28 12:23:38;;;;;;;10.18;7.22;;;;;;;;;;6278788;22;20150;-63
2022/04/28 12:26:06;;;;;;;9.43;6.55;;;;;;;;;;6277979;22;20154;-62
2022/04/28 12:28:35;;;;;;;11.50;7.40;;;;;;;;;;6278747;22;20201;-61
2022/04/28 12:31:02;;;;;;;9.02;6.43;;;;;;;;;;6278253;22;20635;-63
2022/04/28 12:33:29;;;;;;;10.38;6.22;;;;;;;;;;6278911;22;20168;-62
2022/04/28 12:35:59;;;;;;;10.30;6.10;;;;;;;;;;6278305;22;20139;-63
2022/04/28 12:38:26;;;;;;;7.45;5.97;;;;;;;;;;6278638;22;20458;-62
2022/04/28 12:40:53;;;;;;;8.63;6.15;;;;;;;;;;6278406;22;20140;-63
2022/04/28 12:43:38;;;;;;;10.90;6.55;;;;;;;;;;6278250;22;20143;-63
2022/04/28 12:46:06;;;;;;;10.27;6.43;;;;;;;;;;6278631;22;20443;-63
2022/04/28 12:48:33;;;;;;;8.90;6.10;;;;;;;;;;6279012;22;20144;-64
2022/04/28 12:51:16;;;;;;;7.95;5.90;;;;;;;;;;6278493;22;20179;-63
2022/04/28 12:53:44;;;;;;;10.93;5.50;;;;;;;;;;6278916;22;20417;-63
2022/04/28 12:56:12;;;;;;;8.77;5.65;;;;;;;;;;6279838;22;20218;-63
2022/04/28 12:58:38;;;;;;;9.80;5.43;;;;;;;;;;6280230;22;20354;-63
2022/04/28 13:01:07;;;;;;;8.27;4.93;;;;;;;;;;6279176;22;20140;-63
2022/04/28 13:03:33;;;;;;;8.25;5.50;;;;;;;;;;6278539;22;20575;-64
2022/04/28 13:06:00;;;;;;;7.13;5.25;;;;;;;;;;6279472;22;20193;-63
2022/04/28 13:08:26;;;;;;;7.85;4.88;;;;;;;;;;6280077;22;20150;-63
2022/04/28 13:10:52;;;;;;;10.70;6.07;;;;;;;;;;6280496;22;20151;-63
2022/04/28 13:13:18;;;;;;;10.70;6.07;;;;;;;;;;6278664;22;20171;-62
2022/04/28 13:15:44;;;;;;;6.38;5.10;;;;;;;;;;6277587;22;20139;-63
2022/04/28 13:18:10;;;;;;;8.20;4.88;;;;;;;;;;6277800;22;20140;-62
2022/04/28 13:20:36;;;;;;;9.10;5.43;;;;;;;;;;6278410;22;20626;-63
2022/04/28 13:23:02;;;;;;;11.23;5.88;;;;;;;;;;6278149;22;20230;-63
2022/04/28 13:25:28;;;;;;;8.68;5.95;;;;;;;;;;6278767;22;20140;-62
2022/04/28 13:27:54;;;;;;;10.07;6.18;;;;;;;;;;6277945;22;20447;-63
2022/04/28 13:30:20;;;;;;;9.60;6.20;;;;;;;;;;6277683;22;20586;-63
2022/04/28 13:32:46;;;;;;;8.77;6.38;;;;;;;;;;6278098;22;20619;-63
2022/04/28 13:35:12;;;;;;;11.13;5.80;;;;;;;;;;6278314;22;20140;-63
2022/04/28 13:37:38;;;;;;;9.43;6.38;;;;;;;;;;6278569;22;20139;-62
2022/04/28 13:40:04;;;;;;;11.02;6.63;;;;;;;;;;6278608;22;20135;-63
2022/04/28 13:42:30;;;;;;;9.25;6.03;;;;;;;;;;6278156;22;20219;-63
2022/04/28 13:44:56;;;;;;;12.48;6.60;;;;;;;;;;6278731;22;20146;-63
2022/04/28 13:47:22;;;;;;;11.45;6.25;;;;;;;;;;6277932;22;20140;-63
2022/04/28 13:49:48;;;;;;;8.45;6.88;;;;;;;;;;6277606;22;20185;-62
2022/04/28 13:52:14;;;;;;;10.32;7.30;;;;;;;;;;6277652;22;20498;-63
2022/04/28 13:54:40;;;;;;;10.98;6.95;;;;;;;;;;6278505;22;20143;-63
2022/04/28 13:57:06;;;;;;;11.38;7.65;;;;;;;;;;6277614;22;20139;-63
2022/04/28 13:59:32;;;;;;;10.82;7.53;;;;;;;;;;6278205;22;20140;-63
2022/04/28 14:01:58;;;;;;;10.65;7.05;;;;;;;;;;6277712;22;20140;-63
2022/04/28 14:04:27;;;;;;;14.55;6.88;;;;;;;;;;6277963;22;20488;-63
2022/04/28 14:06:53;;;;;;;10.50;6.85;;;;;;;;;;6277552;22;20209;-63
2022/04/28 14:09:20;;;;;;;9.55;6.00;;;;;;;;;;6278375;22;20155;-63
2022/04/28 14:11:46;;;;;;;11.45;6.53;;;;;;;;;;6278090;22;20167;-63
2022/04/28 14:14:12;;;;;;;9.20;6.10;;;;;;;;;;6278225;22;20167;-63
2022/04/28 14:16:38;;;;;;;8.55;5.78;;;;;;;;;;6278339;22;20562;-63
2022/04/28 14:19:05;;;;;;;8.80;5.40;;;;;;;;;;6278565;22;20135;-63
2022/04/28 14:21:33;;;;;;;8.32;6.28;;;;;;;;;;6278006;22;20147;-63
2022/04/28 14:23:59;;;;;;;18.88;6.80;;;;;;;;;;6277178;22;20271;-63
2022/04/28 14:26:25;;;;;;;7.35;5.70;;;;;;;;;;6276969;22;20222;-63
2022/04/28 14:28:51;;;;;;;6.85;5.57;;;;;;;;;;6276843;22;20170;-64
2022/04/28 14:31:17;;;;;;;9.13;5.40;;;;;;;;;;6277629;22;20167;-64
2022/04/28 14:33:43;;;;;;;9.70;5.50;;;;;;;;;;6277385;22;20238;-64
2022/04/28 14:36:09;;;;;;;8.02;5.40;;;;;;;;;;6277202;22;20177;-64
2022/04/28 14:38:36;;;;;;;8.38;5.40;;;;;;;;;;6276579;22;20144;-64
2022/04/28 14:41:02;;;;;;;8.10;5.57;;;;;;;;;;6277093;22;20154;-64
2022/04/28 14:43:28;;;;;;;8.48;5.88;;;;;;;;;;6276956;22;20155;-64
2022/04/28 14:45:54;;;;;;;8.57;6.72;;;;;;;;;;6276764;22;20139;-64
2022/04/28 14:48:20;;;;;;;13.00;7.05;;;;;;;;;;6276507;22;20252;-64
2022/04/28 14:53:31;;;;;;;9.10;6.80;;;;;;;;;;6276528;22;20173;-64
2022/04/28 14:55:57;;;;;;;7.95;6.47;;;;;;;;;;6276967;22;20614;-64
2022/04/28 14:58:23;;;;;;;11.27;7.00;;;;;;;;;;6277411;22;20135;-64
2022/04/28 15:00:50;;;;;;;9.23;6.63;;;;;;;;;;6278698;22;20423;-64
2022/04/28 15:03:16;;;;;;;9.75;6.60;;;;;;;;;;6278298;22;20214;-64
2022/04/28 15:05:42;;;;;;;7.05;6.10;;;;;;;;;;6278568;22;20220;-64
2022/04/28 15:08:09;;;;;;;7.25;5.05;;;;;;;;;;6277937;22;20139;-63